createdAt,value
2022-09-09T00:00:19.530Z,21.50
2022-09-09T00:03:05.456Z,21.60
2022-09-09T00:06:12.392Z,22.10
2022-09-09T00:09:03.254Z,22.50
2022-09-09T00:12:25.523Z,22.30
2022-09-09T00:15:24.823Z,22.20
2022-09-09T00:18:25.839Z,21.50
2022-09-09T00:21:16.790Z,21.40
2022-09-09T00:24:11.924Z,21.40
2022-09-09T00:27:06.309Z,20.90
2022-09-09T00:30:19.681Z,21.50
2022-09-09T00:33:16.015Z,21.70
2022-09-09T00:36:04.095Z,21.80
2022-09-09T00:38:53.460Z,22.00
2022-09-09T00:41:41.927Z,22.10
2022-09-09T00:44:36.315Z,21.80
2022-09-09T00:47:43.414Z,22.00
2022-09-09T00:50:57.482Z,22.00
2022-09-09T00:54:01.782Z,21.80
2022-09-09T00:57:07.857Z,21.50
2022-09-09T01:00:19.785Z,21.30
2022-09-09T01:03:09.720Z,21.50
2022-09-09T01:06:04.423Z,21.30
2022-09-09T01:09:00.958Z,21.00
2022-09-09T01:12:34.246Z,21.00
2022-09-09T01:15:25.612Z,21.30
2022-09-09T01:18:15.504Z,21.30
2022-09-09T01:21:24.980Z,21.40
2022-09-09T01:24:50.363Z,21.40
2022-09-09T01:27:43.149Z,21.50
2022-09-09T01:30:30.284Z,21.30
2022-09-09T01:33:19.426Z,21.30
2022-09-09T01:36:13.402Z,21.40
2022-09-09T01:39:06.133Z,21.50
2022-09-09T01:41:55.541Z,21.80
2022-09-09T01:44:41.746Z,22.10
2022-09-09T01:47:27.715Z,22.50
2022-09-09T01:50:48.662Z,22.50
2022-09-09T01:53:35.308Z,21.90
2022-09-09T01:57:04.860Z,21.40
2022-09-09T02:00:13.045Z,21.20
2022-09-09T02:03:19.970Z,21.70
2022-09-09T02:06:40.917Z,21.90
2022-09-09T02:09:39.879Z,22.10
2022-09-09T02:12:27.108Z,22.20
2022-09-09T02:15:40.465Z,22.40
2022-09-09T02:18:32.652Z,22.40
2022-09-09T02:21:19.601Z,21.90
2022-09-09T02:24:09.099Z,21.40
2022-09-09T02:27:01.561Z,21.10
2022-09-09T02:29:50.531Z,21.10
2022-09-09T02:32:40.775Z,21.00
2022-09-09T02:35:31.603Z,21.10
2022-09-09T02:38:19.449Z,20.90
2022-09-09T02:41:18.034Z,20.70
2022-09-09T02:44:11.237Z,20.70
2022-09-09T02:46:56.957Z,20.80
2022-09-09T02:50:16.629Z,20.80
2022-09-09T02:53:11.228Z,20.60
2022-09-09T02:56:06.729Z,20.60
2022-09-09T02:58:56.397Z,20.90
2022-09-09T03:01:45.072Z,20.80
2022-09-09T03:04:32.332Z,21.00
2022-09-09T03:07:21.566Z,21.20
2022-09-09T03:10:27.296Z,20.90
2022-09-09T03:13:13.925Z,20.60
2022-09-09T03:16:00.971Z,20.20
2022-09-09T03:18:49.181Z,20.10
2022-09-09T03:21:34.928Z,20.40
2022-09-09T03:24:21.124Z,20.60
2022-09-09T03:27:08.313Z,20.90
2022-09-09T03:29:57.022Z,20.90
2022-09-09T03:32:48.786Z,20.80
2022-09-09T03:35:34.671Z,20.60
2022-09-09T03:38:21.065Z,20.40
2022-09-09T03:41:09.298Z,20.20
2022-09-09T03:43:56.691Z,20.30
2022-09-09T03:46:44.603Z,20.10
2022-09-09T03:49:32.822Z,20.00
2022-09-09T03:52:23.730Z,19.80
2022-09-09T03:55:11.231Z,19.80
2022-09-09T03:57:56.740Z,19.60
2022-09-09T04:00:43.977Z,19.30
2022-09-09T04:03:30.698Z,19.20
2022-09-09T04:06:16.360Z,19.20
2022-09-09T04:09:05.455Z,19.10
2022-09-09T04:11:51.692Z,19.30
2022-09-09T04:14:37.381Z,19.40
2022-09-09T04:17:25.215Z,19.50
2022-09-09T04:20:13.153Z,19.20
2022-09-09T04:22:58.706Z,19.10
2022-09-09T04:25:52.745Z,18.80
2022-09-09T04:28:39.192Z,18.90
2022-09-09T04:31:32.646Z,18.90
2022-09-09T04:34:18.451Z,18.90
2022-09-09T04:37:04.491Z,19.10
2022-09-09T04:39:50.066Z,19.00
2022-09-09T04:42:40.535Z,19.10
2022-09-09T04:45:27.243Z,19.00
2022-09-09T04:48:13.184Z,19.10
2022-09-09T04:51:00.939Z,19.40
2022-09-09T04:53:48.592Z,19.30
2022-09-09T04:56:35.523Z,19.30
2022-09-09T04:59:22.740Z,19.20
2022-09-09T05:02:13.051Z,19.20
2022-09-09T05:04:59.075Z,19.30
2022-09-09T05:07:45.717Z,19.30
2022-09-09T05:10:32.444Z,19.30
2022-09-09T05:13:19.352Z,19.30
2022-09-09T05:16:05.307Z,19.40
2022-09-09T05:18:52.401Z,19.30
2022-09-09T05:21:38.983Z,19.30
2022-09-09T05:24:25.742Z,19.40
2022-09-09T05:27:13.980Z,19.40
2022-09-09T05:30:00.617Z,19.70
2022-09-09T05:32:48.375Z,20.10
2022-09-09T05:35:34.494Z,20.50
2022-09-09T05:38:20.952Z,20.50
2022-09-09T05:41:08.316Z,21.00
2022-09-09T05:43:54.030Z,21.10
2022-09-09T05:46:41.067Z,20.70
2022-09-09T05:49:27.107Z,20.40
2022-09-09T05:52:12.849Z,20.40
2022-09-09T05:54:58.562Z,20.50
2022-09-09T05:57:52.488Z,20.80
2022-09-09T06:00:49.846Z,21.00
2022-09-09T06:03:37.596Z,21.10
2022-09-09T06:06:27.008Z,21.20
2022-09-09T06:09:14.772Z,21.30
2022-09-09T06:12:02.632Z,21.70
2022-09-09T06:14:51.874Z,21.40
2022-09-09T06:17:39.870Z,21.30
2022-09-09T06:20:26.204Z,21.70
2022-09-09T06:23:13.322Z,21.60
2022-09-09T06:26:13.040Z,21.40
2022-09-09T06:29:00.466Z,21.80
2022-09-09T06:31:46.323Z,22.30
2022-09-09T06:34:37.179Z,22.40
2022-09-09T06:37:25.056Z,22.40
2022-09-09T06:40:11.369Z,22.40
2022-09-09T06:43:01.992Z,22.40
2022-09-09T06:46:03.248Z,22.10
2022-09-09T06:48:52.409Z,21.60
2022-09-09T06:51:44.078Z,21.60
2022-09-09T06:54:34.020Z,21.80
2022-09-09T06:57:37.313Z,22.00
2022-09-09T07:00:27.754Z,22.10
2022-09-09T07:03:16.476Z,22.00
2022-09-09T07:06:03.301Z,21.90
2022-09-09T07:08:56.892Z,22.00
2022-09-09T07:11:52.585Z,22.10
2022-09-09T07:14:44.561Z,22.10
2022-09-09T07:17:30.276Z,22.20
2022-09-09T07:20:19.229Z,22.50
2022-09-09T07:23:08.586Z,23.10
2022-09-09T07:25:55.083Z,23.00
2022-09-09T07:28:42.314Z,22.40
2022-09-09T07:31:33.876Z,23.00
2022-09-09T07:34:20.524Z,23.30
2022-09-09T07:37:06.466Z,23.10
2022-09-09T07:39:54.483Z,22.90
2022-09-09T07:42:42.964Z,23.30
2022-09-09T07:45:33.858Z,23.50
2022-09-09T07:48:20.235Z,23.30
2022-09-09T07:51:09.084Z,23.40
2022-09-09T07:54:01.619Z,23.30
2022-09-09T07:56:48.008Z,23.80
2022-09-09T07:59:37.389Z,23.80
2022-09-09T08:02:24.863Z,24.40
2022-09-09T08:05:13.624Z,24.50
2022-09-09T08:08:01.413Z,25.40
2022-09-09T08:10:47.623Z,26.00
2022-09-09T08:13:35.257Z,25.70
2022-09-09T08:16:24.517Z,26.80
2022-09-09T08:19:11.101Z,27.70
2022-09-09T08:21:58.198Z,29.00
2022-09-09T08:24:45.355Z,28.50
2022-09-09T08:27:33.583Z,28.20
2022-09-09T08:30:19.842Z,28.70
2022-09-09T08:33:06.223Z,29.90
2022-09-09T08:35:53.900Z,30.10
2022-09-09T08:38:39.838Z,31.20
2022-09-09T08:41:58.385Z,31.70
2022-09-09T08:45:09.074Z,29.90
2022-09-09T08:48:10.002Z,29.90
2022-09-09T08:51:06.403Z,30.30
2022-09-09T08:53:59.812Z,29.80
2022-09-09T08:56:46.644Z,29.50
2022-09-09T08:59:35.197Z,30.20
2022-09-09T09:02:54.650Z,31.00
2022-09-09T09:06:06.469Z,31.40
2022-09-09T09:09:10.975Z,30.50
2022-09-09T09:12:11.565Z,30.80
2022-09-09T09:15:01.654Z,30.60
2022-09-09T09:17:49.655Z,32.00
2022-09-09T09:20:49.270Z,31.30
2022-09-09T09:23:44.775Z,30.10
2022-09-09T09:26:36.268Z,29.50
2022-09-09T09:29:26.738Z,29.90
2022-09-09T09:32:17.266Z,30.40
2022-09-09T09:35:12.766Z,30.10
2022-09-09T09:41:10.578Z,31.10
2022-09-09T09:43:56.318Z,30.10
2022-09-09T09:46:43.461Z,30.90
2022-09-09T09:49:34.193Z,30.20
2022-09-09T09:52:30.444Z,29.10
2022-09-09T09:55:18.684Z,27.80
2022-09-09T09:58:07.629Z,28.50
2022-09-09T10:00:55.478Z,28.90
2022-09-09T10:04:15.361Z,29.90
2022-09-09T10:07:12.427Z,29.60
2022-09-09T10:09:59.550Z,29.60
2022-09-09T10:12:54.295Z,29.50
2022-09-09T10:16:09.297Z,30.60
2022-09-09T10:19:19.363Z,31.30
2022-09-09T10:22:33.984Z,30.70
2022-09-09T10:25:28.361Z,30.10
2022-09-09T10:28:48.326Z,29.40
2022-09-09T10:31:52.856Z,29.40
2022-09-09T10:34:50.873Z,30.40
2022-09-09T10:37:55.320Z,30.50
2022-09-09T10:40:59.329Z,31.20
2022-09-09T10:44:06.234Z,30.10
2022-09-09T10:47:01.847Z,31.40
2022-09-09T10:50:03.120Z,32.10
2022-09-09T10:53:03.490Z,31.70
2022-09-09T10:56:09.353Z,32.20
2022-09-09T10:59:25.207Z,32.40
2022-09-09T11:02:11.137Z,32.50
2022-09-09T11:05:11.410Z,31.10
2022-09-09T11:08:00.159Z,32.80
2022-09-09T11:11:18.856Z,35.00
2022-09-09T11:14:14.842Z,34.10
2022-09-09T11:17:06.431Z,31.70
2022-09-09T11:19:52.801Z,31.50
2022-09-09T11:22:44.323Z,32.60
2022-09-09T11:25:42.709Z,31.50
2022-09-09T11:28:52.646Z,33.90
2022-09-09T11:32:17.764Z,35.50
2022-09-09T11:35:37.196Z,34.00
2022-09-09T11:38:30.397Z,34.00
2022-09-09T11:41:21.538Z,34.90
2022-09-09T11:44:13.549Z,34.70
2022-09-09T11:46:59.373Z,34.90
2022-09-09T11:49:46.540Z,35.50
2022-09-09T11:52:46.717Z,36.00
2022-09-09T11:55:37.156Z,34.70
2022-09-09T11:58:23.670Z,32.50
2022-09-09T12:01:28.421Z,32.80
2022-09-09T12:04:34.121Z,33.90
2022-09-09T12:07:36.388Z,35.70
2022-09-09T12:10:33.631Z,36.00
2022-09-09T12:13:27.864Z,34.60
2022-09-09T12:16:34.328Z,34.80
2022-09-09T12:19:27.059Z,35.10
2022-09-09T12:22:28.925Z,36.20
2022-09-09T12:25:23.552Z,35.80
2022-09-09T12:28:19.873Z,35.40
2022-09-09T12:31:43.892Z,33.10
2022-09-09T12:35:01.065Z,31.70
2022-09-09T12:38:20.520Z,30.50
2022-09-09T12:41:20.536Z,30.10
2022-09-09T12:44:11.364Z,29.80
2022-09-09T12:47:02.842Z,30.00
2022-09-09T12:49:50.951Z,29.40
2022-09-09T12:52:39.936Z,29.10
2022-09-09T12:55:31.843Z,29.20
2022-09-09T12:58:19.275Z,28.80
2022-09-09T13:01:07.185Z,28.80
2022-09-09T13:03:53.841Z,28.70
2022-09-09T13:06:39.539Z,28.20
2022-09-09T13:09:25.417Z,28.00
2022-09-09T13:12:23.661Z,27.60
2022-09-09T13:15:25.647Z,27.70
2022-09-09T13:18:14.792Z,27.80
2022-09-09T13:21:01.287Z,28.00
2022-09-09T13:23:54.196Z,28.00
2022-09-09T13:26:40.345Z,28.40
2022-09-09T13:29:26.656Z,28.40
2022-09-09T13:32:19.102Z,28.40
2022-09-09T13:35:05.625Z,28.20
2022-09-09T13:37:51.771Z,28.20
2022-09-09T13:40:39.499Z,28.20
2022-09-09T13:43:26.890Z,28.50
2022-09-09T13:46:31.223Z,28.70
2022-09-09T13:49:17.416Z,28.70
2022-09-09T13:52:19.026Z,28.70
2022-09-09T13:55:04.907Z,28.60
2022-09-09T13:57:59.163Z,28.30
2022-09-09T14:00:46.286Z,27.80
2022-09-09T14:03:32.330Z,28.50
2022-09-09T14:06:19.930Z,28.20
2022-09-09T14:09:07.254Z,28.30
2022-09-09T14:11:53.078Z,27.90
2022-09-09T14:14:38.621Z,28.10
2022-09-09T14:17:26.371Z,28.10
2022-09-09T14:20:13.103Z,28.40
2022-09-09T14:23:03.220Z,28.10
2022-09-09T14:25:50.149Z,28.20
2022-09-09T14:28:54.927Z,28.40
2022-09-09T14:31:41.717Z,26.80
2022-09-09T14:34:27.751Z,28.60
2022-09-09T14:37:13.809Z,28.50
2022-09-09T14:40:00.049Z,28.00
2022-09-09T14:42:45.788Z,27.90
2022-09-09T14:45:31.824Z,28.00
2022-09-09T14:48:17.763Z,28.40
2022-09-09T14:51:09.130Z,28.20
2022-09-09T14:53:58.212Z,28.00
2022-09-09T14:56:46.968Z,27.90
2022-09-09T14:59:32.990Z,28.70
2022-09-09T15:02:18.654Z,28.20
2022-09-09T15:05:05.417Z,28.10
2022-09-09T15:07:51.410Z,28.10
2022-09-09T15:10:39.122Z,28.20
2022-09-09T15:13:25.910Z,28.20
2022-09-09T15:16:20.595Z,28.40
2022-09-09T15:19:06.628Z,28.50
2022-09-09T15:21:52.489Z,28.30
2022-09-09T15:24:37.998Z,28.60
2022-09-09T15:27:24.884Z,28.50
2022-09-09T15:30:11.040Z,28.40
2022-09-09T15:32:56.569Z,28.40
2022-09-09T15:35:42.209Z,28.30
2022-09-09T15:38:29.286Z,28.50
2022-09-09T15:41:15.580Z,28.60
2022-09-09T15:44:02.115Z,28.60
2022-09-09T15:46:56.710Z,28.40
2022-09-09T15:49:42.303Z,28.50
2022-09-09T15:52:28.021Z,28.80
2022-09-09T15:55:13.658Z,28.10
2022-09-09T15:57:59.197Z,27.90
2022-09-09T16:00:46.649Z,28.10
2022-09-09T16:03:39.969Z,28.30
2022-09-09T16:06:30.732Z,28.10
2022-09-09T16:09:17.015Z,28.00
2022-09-09T16:12:08.915Z,27.90
2022-09-09T16:14:56.242Z,28.00
2022-09-09T16:17:43.694Z,28.20
2022-09-09T16:20:29.529Z,28.10
2022-09-09T16:23:15.896Z,27.90
2022-09-09T16:26:05.677Z,27.90
2022-09-09T16:28:51.479Z,27.70
2022-09-09T16:31:38.631Z,27.70
2022-09-09T16:34:25.158Z,27.70
2022-09-09T16:37:12.276Z,27.70
2022-09-09T16:39:58.329Z,26.20
2022-09-09T16:42:44.372Z,27.90
2022-09-09T16:45:31.337Z,27.80
2022-09-09T16:48:17.045Z,27.80
2022-09-09T16:51:06.082Z,27.80
2022-09-09T16:53:53.528Z,27.70
2022-09-09T16:56:44.141Z,27.90
2022-09-09T16:59:29.819Z,28.00
2022-09-09T17:02:15.632Z,28.20
2022-09-09T17:05:01.931Z,28.20
2022-09-09T17:07:48.674Z,28.30
2022-09-09T17:10:34.613Z,27.90
2022-09-09T17:13:20.664Z,27.80
2022-09-09T17:16:06.355Z,27.90
2022-09-09T17:18:52.654Z,28.20
2022-09-09T17:21:54.606Z,28.30
2022-09-09T17:24:45.369Z,28.10
2022-09-09T17:27:34.495Z,28.00
2022-09-09T17:30:20.615Z,27.90
2022-09-09T17:33:07.605Z,27.90
2022-09-09T17:35:53.364Z,28.00
2022-09-09T17:38:39.712Z,27.70
2022-09-09T17:41:31.442Z,27.80
2022-09-09T17:44:17.357Z,27.60
2022-09-09T17:47:05.033Z,27.50
2022-09-09T17:49:50.790Z,27.50
2022-09-09T17:52:36.338Z,27.40
2022-09-09T17:55:22.453Z,27.30
2022-09-09T17:58:08.820Z,27.50
2022-09-09T18:00:54.244Z,27.40
2022-09-09T18:03:43.617Z,27.10
2022-09-09T18:06:38.063Z,27.10
2022-09-09T18:09:26.096Z,26.90
2022-09-09T18:12:11.738Z,26.90
2022-09-09T18:15:01.002Z,26.80
2022-09-09T18:17:49.184Z,26.80
2022-09-09T18:20:34.734Z,26.90
2022-09-09T18:23:20.278Z,26.90
2022-09-09T18:26:14.373Z,26.90
2022-09-09T18:29:03.752Z,26.90
2022-09-09T18:31:49.728Z,26.90
2022-09-09T18:34:35.889Z,27.10
2022-09-09T18:37:21.405Z,27.00
2022-09-09T18:40:07.798Z,26.60
2022-09-09T18:42:53.213Z,26.60
2022-09-09T18:45:39.089Z,26.90
2022-09-09T18:48:25.018Z,27.10
2022-09-09T18:51:11.798Z,27.00
2022-09-09T18:54:03.344Z,27.10
2022-09-09T18:56:49.829Z,27.10
2022-09-09T18:59:36.455Z,26.80
2022-09-09T19:02:22.075Z,26.90
2022-09-09T19:05:08.313Z,27.10
2022-09-09T19:07:53.632Z,26.90
2022-09-09T19:10:39.338Z,26.80
2022-09-09T19:13:25.494Z,26.90
2022-09-09T19:16:15.314Z,26.80
2022-09-09T19:19:06.921Z,26.80
2022-09-09T19:21:58.243Z,26.90
2022-09-09T19:24:45.879Z,26.80
2022-09-09T19:27:31.414Z,26.90
2022-09-09T19:30:17.243Z,26.60
2022-09-09T19:33:04.383Z,26.60
2022-09-09T19:36:02.272Z,26.90
2022-09-09T19:38:49.296Z,26.80
2022-09-09T19:41:35.200Z,26.70
2022-09-09T19:44:20.698Z,26.60
2022-09-09T19:47:07.855Z,26.60
2022-09-09T19:49:53.759Z,26.80
2022-09-09T19:52:39.690Z,26.50
2022-09-09T19:55:28.690Z,26.50
2022-09-09T19:58:14.615Z,26.60
2022-09-09T20:01:17.156Z,26.50
2022-09-09T20:04:04.622Z,26.30
2022-09-09T20:06:53.139Z,26.30
2022-09-09T20:09:39.355Z,26.10
2022-09-09T20:12:25.025Z,26.20
2022-09-09T20:15:11.060Z,26.20
2022-09-09T20:17:56.407Z,26.00
2022-09-09T20:20:43.144Z,25.70
2022-09-09T20:23:29.612Z,25.70
2022-09-09T20:26:17.728Z,25.50
2022-09-09T20:29:05.992Z,25.50
2022-09-09T20:31:52.036Z,25.50
2022-09-09T20:34:37.924Z,25.40
2022-09-09T20:37:24.029Z,25.50
2022-09-09T20:40:10.459Z,25.50
2022-09-09T20:42:56.207Z,25.40
2022-09-09T20:45:43.850Z,25.50
2022-09-09T20:48:33.476Z,25.40
2022-09-09T20:51:23.626Z,25.60
2022-09-09T20:54:15.851Z,25.50
2022-09-09T20:57:02.117Z,25.70
2022-09-09T20:59:50.942Z,25.80
2022-09-09T21:02:36.496Z,25.60
2022-09-09T21:05:24.270Z,25.50
2022-09-09T21:08:09.946Z,25.50
2022-09-09T21:10:55.931Z,25.80
2022-09-09T21:13:41.673Z,25.70
2022-09-09T21:16:27.991Z,25.90
2022-09-09T21:19:13.959Z,25.90
2022-09-09T21:22:00.249Z,25.80
2022-09-09T21:24:45.840Z,25.60
2022-09-09T21:27:31.627Z,25.50
2022-09-09T21:30:17.216Z,25.40
2022-09-09T21:33:04.275Z,25.40
2022-09-09T21:35:50.790Z,25.30
2022-09-09T21:38:36.416Z,25.20
2022-09-09T21:41:21.806Z,25.70
2022-09-09T21:44:09.154Z,25.80
2022-09-09T21:46:54.598Z,26.00
2022-09-09T21:49:40.214Z,25.90
2022-09-09T21:52:25.867Z,25.90
2022-09-09T21:55:11.766Z,26.00
2022-09-09T21:57:59.748Z,25.60
2022-09-09T22:00:47.037Z,25.30
2022-09-09T22:03:33.464Z,25.10
2022-09-09T22:06:19.649Z,25.00
2022-09-09T22:09:05.594Z,24.90
2022-09-09T22:11:52.695Z,25.00
2022-09-09T22:14:38.521Z,25.20
2022-09-09T22:17:24.453Z,25.20
2022-09-09T22:20:12.281Z,25.10
2022-09-09T22:23:02.569Z,24.80
2022-09-09T22:25:50.199Z,24.80
2022-09-09T22:28:39.004Z,25.30
2022-09-09T22:31:25.668Z,25.30
2022-09-09T22:34:11.326Z,24.70
2022-09-09T22:36:56.935Z,24.60
2022-09-09T22:39:42.688Z,25.10
2022-09-09T22:42:28.334Z,24.90
2022-09-09T22:45:14.103Z,24.30
2022-09-09T22:48:01.208Z,24.30
2022-09-09T22:50:47.253Z,24.60
2022-09-09T22:53:32.787Z,24.20
2022-09-09T22:56:20.303Z,23.70
2022-09-09T22:59:06.741Z,23.30
2022-09-09T23:01:52.704Z,23.30
2022-09-09T23:04:39.292Z,22.90
2022-09-09T23:07:24.631Z,22.50
2022-09-09T23:10:11.213Z,22.40
2022-09-09T23:12:58.716Z,22.20
2022-09-09T23:15:46.239Z,22.00
2022-09-09T23:18:33.820Z,21.80
2022-09-09T23:21:20.060Z,22.00
2022-09-09T23:24:07.220Z,21.80
2022-09-09T23:26:53.145Z,21.80
2022-09-09T23:29:39.096Z,21.90
2022-09-09T23:32:25.090Z,21.90
2022-09-09T23:35:10.841Z,21.90
2022-09-09T23:37:58.031Z,21.90
2022-09-09T23:40:47.162Z,21.90
2022-09-09T23:43:39.430Z,21.50
2022-09-09T23:46:28.509Z,21.30
2022-09-09T23:49:14.361Z,21.30
2022-09-09T23:52:02.112Z,21.30
2022-09-09T23:54:49.796Z,21.40
2022-09-09T23:57:35.446Z,21.60
